Time;durP1;ratioP1;P1;durP2;ratioP2;P2;SDS_P1;SDS_P2;PMS_P1;PMS_P2;Temp;Humidity;BMP_temperature;BMP_pressure;BME280_temperature;BME280_humidity;BME280_pressure;Samples;Min_cycle;Max_cycle;Signal;HPM_P1;HPM_P2
2022/04/26 03:37:23;;;;;;;2.53;1.20;;;;;;;14.07;43.73;93551.31;4977148;28;20449;-69
2022/04/26 03:39:49;;;;;;;1.88;0.70;;;;;;;13.99;43.86;93538.84;4964233;28;20057;-70
2022/04/26 03:42:15;;;;;;;1.10;0.75;;;;;;;14.00;43.93;93553.78;4973188;28;20471;-71
2022/04/26 03:44:42;;;;;;;4.05;0.70;;;;;;;13.87;44.14;93549.59;4965015;28;20026;-71
2022/04/26 03:47:08;;;;;;;2.92;0.95;;;;;;;13.86;44.15;93562.19;4971121;28;20129;-71
2022/04/26 03:49:36;;;;;;;1.58;1.08;;;;;;;13.82;44.71;93558.66;4969275;28;20406;-70
2022/04/26 03:52:02;;;;;;;1.67;1.20;;;;;;;13.85;44.51;93563.31;4973341;28;20478;-69
2022/04/26 03:54:27;;;;;;;1.75;1.25;;;;;;;13.83;44.53;93546.06;4977692;28;20038;-70
2022/04/26 03:56:53;;;;;;;5.50;1.63;;;;;;;13.89;44.35;93560.72;4969998;28;20665;-68
2022/04/26 03:59:19;;;;;;;1.65;1.40;;;;;;;13.86;44.76;93566.75;4968740;28;20092;-70
2022/04/26 04:01:45;;;;;;;3.53;1.45;;;;;;;13.82;45.11;93568.56;4969230;28;20138;-70
2022/04/26 04:04:11;;;;;;;1.70;1.10;;;;;;;13.90;45.06;93570.31;4970598;28;20023;-69
2022/04/26 04:06:36;;;;;;;1.70;0.98;;;;;;;13.94;45.07;93571.97;4970499;28;20116;-72
2022/04/26 04:09:02;;;;;;;3.13;0.98;;;;;;;14.03;44.54;93569.16;4964861;28;20800;-71
2022/04/26 04:11:28;;;;;;;2.22;1.08;;;;;;;14.02;44.76;93551.56;4976155;28;20050;-69
2022/04/26 04:13:54;;;;;;;2.63;1.30;;;;;;;14.01;44.91;93552.69;4963463;28;20431;-70
2022/04/26 04:16:19;;;;;;;1.40;1.10;;;;;;;14.23;45.29;93581.53;4970855;28;20038;-69
2022/04/26 04:21:28;;;;;;;1.55;0.90;;;;;;;14.42;45.37;93587.03;4967782;28;20698;-69
2022/04/26 04:23:54;;;;;;;0.70;0.70;;;;;;;14.51;44.88;93590.34;4973865;28;20030;-70
2022/04/26 04:26:19;;;;;;;3.65;1.13;;;;;;;14.58;44.52;93595.91;4968686;28;20033;-71
2022/04/26 04:28:45;;;;;;;3.05;0.90;;;;;;;14.66;43.91;93594.22;4970668;28;20034;-72
2022/04/26 04:31:10;;;;;;;1.83;0.77;;;;;;;14.72;44.48;93602.75;4970475;28;20031;-69
2022/04/26 04:33:36;;;;;;;3.85;2.63;;;;;;;14.79;43.78;93600.25;4973534;28;20038;-70
2022/04/26 04:36:03;;;;;;;9.88;2.45;;;;;;;14.91;43.57;93600.19;4969634;28;20120;-70
2022/04/26 04:38:28;;;;;;;4.72;1.55;;;;;;;15.06;43.70;93612.78;4971634;28;20022;-69
2022/04/26 04:40:54;;;;;;;4.43;1.35;;;;;;;15.24;42.71;93605.97;4968453;28;20058;-71
2022/04/26 04:43:19;;;;;;;3.05;1.15;;;;;;;15.35;42.91;93600.88;4970170;28;20557;-70
2022/04/26 04:45:44;;;;;;;3.92;1.00;;;;;;;15.24;42.53;93579.19;4978097;28;20417;-71
2022/04/26 04:48:10;;;;;;;2.72;1.55;;;;;;;15.58;42.07;93603.72;4972591;28;20491;-72
2022/04/26 04:50:35;;;;;;;4.93;1.40;;;;;;;15.50;41.94;93602.75;4974032;28;20422;-71
2022/04/26 04:53:01;;;;;;;3.03;1.10;;;;;;;15.55;41.46;93594.44;4977923;28;20022;-71
2022/04/26 04:55:26;;;;;;;6.90;1.75;;;;;;;15.38;41.72;93617.03;4968946;28;20165;-70
2022/04/26 04:57:58;;;;;;;6.22;1.60;;;;;;;15.56;41.22;93605.94;4979941;28;20072;-70
2022/04/26 05:00:24;;;;;;;1.90;1.33;;;;;;;15.66;40.75;93600.06;4976724;28;20034;-70
2022/04/26 05:02:49;;;;;;;3.72;1.48;;;;;;;15.69;40.70;93618.13;4977990;28;20031;-70
2022/04/26 05:05:14;;;;;;;6.30;1.40;;;;;;;15.73;41.33;93611.72;4978372;28;20060;-71
2022/04/26 05:07:40;;;;;;;5.57;1.40;;;;;;;15.96;40.83;93614.50;4975348;28;20431;-69
2022/04/26 05:10:06;;;;;;;2.08;0.98;;;;;;;16.13;40.19;93619.47;4975859;28;20239;-70
2022/04/26 05:12:33;;;;;;;7.03;2.17;;;;;;;16.05;39.92;93588.25;4971670;28;20038;-69
2022/04/26 05:14:59;;;;;;;2.05;1.08;;;;;;;16.33;39.64;93616.81;4977115;28;20049;-69
2022/04/26 05:17:26;;;;;;;2.83;1.02;;;;;;;16.48;38.86;93615.94;4985607;28;20088;-70
2022/04/26 05:19:52;;;;;;;3.10;1.20;;;;;;;16.47;38.80;93601.78;4976085;28;20116;-69
2022/04/26 05:22:22;;;;;;;2.65;1.20;;;;;;;16.51;38.74;93610.66;4975960;28;20038;-71
2022/04/26 05:24:53;;;;;;;1.45;1.10;;;;;;;16.60;38.91;93618.50;4987988;28;20419;-70
2022/04/26 05:27:28;;;;;;;1.75;0.98;;;;;;;16.48;39.48;93614.03;4975086;28;20057;-71
2022/04/26 05:29:55;;;;;;;1.88;1.27;;;;;;;16.41;39.07;93575.56;4962948;28;20101;-71
2022/04/26 05:32:27;;;;;;;3.10;1.10;;;;;;;16.85;38.75;93619.72;4970228;28;20022;-70
2022/04/26 05:34:58;;;;;;;1.05;0.80;;;;;;;16.64;38.12;93622.03;4983140;28;20034;-71
2022/04/26 05:37:24;;;;;;;1.83;1.00;;;;;;;16.33;38.82;93612.22;4977491;28;20042;-69
2022/04/26 05:39:49;;;;;;;2.00;1.38;;;;;;;16.73;38.17;93628.72;4974750;28;20049;-70
2022/04/26 05:42:15;;;;;;;0.80;0.75;;;;;;;16.94;37.88;93622.97;4983398;28;20077;-69
2022/04/26 05:44:42;;;;;;;0.85;0.60;;;;;;;17.11;37.00;93627.09;4981992;28;20049;-70
2022/04/26 05:47:08;;;;;;;2.83;0.88;;;;;;;16.45;37.82;93630.09;4985137;28;20445;-71
2022/04/26 05:49:34;;;;;;;2.25;0.60;;;;;;;16.68;37.92;93617.50;4982547;28;20042;-71
2022/04/26 05:52:00;;;;;;;2.97;0.95;;;;;;;16.97;36.80;93616.09;4982028;28;20056;-69
2022/04/26 05:54:26;;;;;;;6.03;1.65;;;;;;;16.97;37.10;93614.19;4978992;28;20179;-72
2022/04/26 05:56:54;;;;;;;2.42;0.90;;;;;;;16.42;38.03;93636.97;4988601;28;20033;-71
2022/04/26 05:59:20;;;;;;;0.90;0.73;;;;;;;16.19;38.56;93644.88;4990869;28;20033;-72
2022/04/26 06:01:46;;;;;;;1.88;1.20;;;;;;;16.24;38.67;93625.81;4987131;28;20049;-72
2022/04/26 06:04:12;;;;;;;4.28;1.25;;;;;;;16.03;39.48;93629.97;4988612;28;20459;-70
2022/04/26 06:06:37;;;;;;;3.22;1.35;;;;;;;16.49;38.83;93630.94;4990225;28;20140;-72
2022/04/26 06:09:03;;;;;;;2.75;1.30;;;;;;;16.18;39.31;93637.94;4986317;28;20586;-73
2022/04/26 06:11:29;;;;;;;2.88;1.05;;;;;;;16.62;38.90;93605.50;4993065;28;20041;-71
2022/04/26 06:13:55;;;;;;;1.63;0.80;;;;;;;17.12;37.85;93621.34;4982508;28;20384;-71
2022/04/26 06:16:20;;;;;;;2.55;0.85;;;;;;;16.98;36.68;93620.31;4986617;28;20041;-71
2022/04/26 06:18:46;;;;;;;2.20;0.90;;;;;;;16.35;37.82;93619.91;4988843;28;20151;-72
2022/04/26 06:21:11;;;;;;;1.58;1.13;;;;;;;16.29;37.88;93622.06;4986509;28;20533;-71
2022/04/26 06:23:37;;;;;;;2.50;0.80;;;;;;;15.96;38.39;93594.94;4983451;28;20057;-71
2022/04/26 06:26:02;;;;;;;1.92;1.00;;;;;;;16.51;38.53;93623.31;4984449;28;20138;-72
2022/04/26 06:28:28;;;;;;;4.47;1.20;;;;;;;16.20;37.43;93592.78;4986310;28;20049;-70
2022/04/26 06:30:55;;;;;;;1.55;0.80;;;;;;;16.58;38.02;93618.06;4982378;28;20559;-72
2022/04/26 06:33:20;;;;;;;4.50;0.93;;;;;;;16.83;37.46;93619.31;4979934;28;20260;-71
2022/04/26 06:35:46;;;;;;;1.13;0.80;;;;;;;17.00;35.97;93588.53;4981475;28;20177;-71
2022/04/26 06:38:11;;;;;;;2.33;0.65;;;;;;;17.24;35.64;93607.00;4984447;28;20461;-73
2022/04/26 06:40:37;;;;;;;1.88;0.80;;;;;;;17.38;35.61;93591.09;4985133;28;20481;-72
2022/04/26 06:43:02;;;;;;;1.98;0.80;;;;;;;17.38;35.78;93609.91;4983198;28;20042;-72
2022/04/26 06:45:28;;;;;;;2.90;0.88;;;;;;;17.46;35.58;93598.13;4984659;28;20041;-72
2022/04/26 06:47:54;;;;;;;2.20;1.30;;;;;;;17.72;35.51;93608.09;4985518;28;20446;-72
2022/04/26 06:50:21;;;;;;;3.25;1.00;;;;;;;17.71;35.41;93582.34;4978029;28;20621;-71
2022/04/26 06:52:47;;;;;;;3.17;1.58;;;;;;;17.93;35.36;93605.75;4987726;28;20136;-70
2022/04/26 06:55:12;;;;;;;1.63;0.80;;;;;;;17.59;35.94;93591.41;4986989;28;20304;-71
2022/04/26 06:57:38;;;;;;;3.70;1.40;;;;;;;17.42;36.18;93596.50;4994295;28;20041;-73
2022/04/26 07:00:08;;;;;;;1.17;0.82;;;;;;;17.43;36.22;93592.69;4988912;28;20034;-71
2022/04/26 07:02:34;;;;;;;2.60;0.85;;;;;;;17.14;37.17;93597.63;4986802;28;20076;-72
2022/04/26 07:04:59;;;;;;;4.18;0.85;;;;;;;16.82;37.63;93596.25;4989574;28;20510;-71
2022/04/26 07:07:25;;;;;;;1.25;0.70;;;;;;;17.02;37.59;93600.44;4991673;28;20263;-69
2022/04/26 07:09:50;;;;;;;2.65;0.90;;;;;;;16.84;38.05;93593.22;4977854;28;20042;-71
2022/04/26 07:12:16;;;;;;;5.05;0.95;;;;;;;17.08;37.69;93592.88;4978154;28;20042;-71
2022/04/26 07:14:42;;;;;;;1.55;0.85;;;;;;;16.65;37.69;93586.00;4986414;28;20034;-71
2022/04/26 07:17:07;;;;;;;5.88;1.00;;;;;;;16.95;37.63;93599.56;4987108;28;20053;-72
2022/04/26 07:19:36;;;;;;;2.70;1.20;;;;;;;17.23;37.05;93596.59;4987712;28;20121;-71
2022/04/26 07:22:03;;;;;;;1.15;0.73;;;;;;;16.93;37.56;93591.84;4983839;28;20044;-71
2022/04/26 07:24:31;;;;;;;1.73;0.75;;;;;;;17.37;37.11;93602.19;4985587;28;20406;-71
2022/04/26 07:26:56;;;;;;;2.95;1.02;;;;;;;16.97;37.27;93581.94;4989393;28;20529;-72
2022/04/26 07:29:22;;;;;;;2.92;1.42;;;;;;;16.88;36.88;93602.91;4990458;28;20022;-71
2022/04/26 07:31:47;;;;;;;2.97;1.00;;;;;;;16.91;37.45;93599.50;4987474;28;20540;-70
2022/04/26 07:34:22;;;;;;;4.55;1.10;;;;;;;16.66;37.35;93599.06;4989836;28;20030;-70
2022/04/26 07:36:59;;;;;;;2.38;1.00;;;;;;;17.34;35.82;93592.16;4987016;28;20133;-72
2022/04/26 07:39:24;;;;;;;1.92;1.15;;;;;;;17.06;36.58;93585.16;4984737;28;20040;-72
2022/04/26 07:41:50;;;;;;;8.70;1.25;;;;;;;17.38;36.67;93601.06;4988868;28;20033;-71
2022/04/26 07:44:16;;;;;;;1.15;0.95;;;;;;;17.04;37.29;93600.09;4988739;28;20033;-72
2022/04/26 07:46:46;;;;;;;1.52;1.17;;;;;;;16.73;38.10;93604.56;5019243;28;20048;-71
2022/04/26 07:49:13;;;;;;;3.40;0.90;;;;;;;17.07;37.74;93604.75;4989459;28;20049;-70
2022/04/26 07:51:38;;;;;;;2.03;0.88;;;;;;;17.05;37.23;93605.13;4985830;28;20081;-71
2022/04/26 07:54:05;;;;;;;4.35;1.00;;;;;;;17.07;37.62;93597.47;4985029;28;20509;-71
2022/04/26 07:56:31;;;;;;;1.70;0.80;;;;;;;16.85;37.67;93595.56;4992578;28;20014;-70
2022/04/26 07:58:58;;;;;;;1.38;1.00;;;;;;;16.87;37.51;93585.22;4987672;28;20030;-71
2022/04/26 08:01:25;;;;;;;2.00;0.85;;;;;;;16.95;37.49;93594.97;4985264;28;20030;-73
2022/04/26 08:03:51;;;;;;;2.00;1.17;;;;;;;16.61;37.65;93585.16;4989457;28;20037;-72
2022/04/26 08:06:16;;;;;;;3.33;1.17;;;;;;;16.79;38.24;93594.28;4989527;28;20352;-70
2022/04/26 08:08:42;;;;;;;3.85;1.40;;;;;;;16.64;38.62;93604.00;4988663;28;20673;-70
2022/04/26 08:11:11;;;;;;;3.47;0.95;;;;;;;16.45;38.53;93593.28;4990249;28;20050;-70
2022/04/26 08:13:38;;;;;;;2.15;1.20;;;;;;;16.10;38.64;93545.06;4989488;28;20708;-71
2022/04/26 08:16:04;;;;;;;4.40;0.93;;;;;;;16.52;39.11;93592.66;4988353;28;20237;-71
2022/04/26 08:18:29;;;;;;;5.55;1.25;;;;;;;16.58;39.36;93570.53;4986102;28;20033;-73
2022/04/26 08:20:55;;;;;;;3.17;1.00;;;;;;;16.50;39.67;93600.28;4985721;28;20365;-71
2022/04/26 08:23:21;;;;;;;1.50;1.15;;;;;;;16.77;39.19;93596.53;4987051;28;20054;-70
2022/04/26 08:28:31;;;;;;;3.57;1.23;;;;;;;16.75;39.64;93572.75;4988124;28;20069;-71
2022/04/26 08:30:57;;;;;;;10.95;7.15;;;;;;;17.01;39.82;93566.66;4985798;28;20045;-71
2022/04/26 08:33:22;;;;;;;4.07;1.63;;;;;;;16.80;39.70;93571.69;5004667;28;20069;-71
2022/04/26 08:35:48;;;;;;;2.30;1.73;;;;;;;16.40;40.10;93523.78;4986805;28;20029;-71
2022/04/26 08:38:13;;;;;;;6.63;2.22;;;;;;;17.06;40.08;93587.84;4988796;28;20489;-72
2022/04/26 08:40:45;;;;;;;3.75;1.55;;;;;;;17.31;40.03;93590.19;4984798;28;20038;-71
2022/04/26 08:43:11;;;;;;;7.53;2.40;;;;;;;16.76;40.95;93589.66;4988469;28;20061;-70
2022/04/26 08:45:41;;;;;;;7.68;1.70;;;;;;;16.93;40.99;93565.00;4988670;28;20040;-71
2022/04/26 08:51:00;;;;;;;5.70;1.50;;;;;;;17.16;40.16;93589.19;4989497;28;20534;-70
2022/04/26 08:53:30;;;;;;;6.25;1.83;;;;;;;16.92;39.25;93584.16;4989252;28;20392;-71
2022/04/26 08:55:59;;;;;;;3.33;1.77;;;;;;;16.78;39.93;93590.06;4985791;28;20038;-71
2022/04/26 08:58:25;;;;;;;6.72;1.70;;;;;;;16.91;40.59;93578.03;4980222;28;20126;-70
2022/04/26 09:01:16;;;;;;;6.70;1.55;;;;;;;17.10;39.94;93593.28;4986816;28;20811;-72
2022/04/26 09:03:54;;;;;;;6.40;1.67;;;;;;;17.05;40.95;93590.91;5005859;28;20042;-72
2022/04/26 09:06:21;;;;;;;4.30;1.52;;;;;;;17.07;39.76;93508.81;4991257;28;20091;-70
2022/04/26 09:08:49;;;;;;;2.03;1.40;;;;;;;17.58;38.70;93562.97;4984171;28;20802;-71
2022/04/26 09:11:32;;;;;;;7.00;1.50;;;;;;;18.10;39.33;93585.59;4986324;28;20312;-71
2022/04/26 09:13:59;;;;;;;2.88;1.55;;;;;;;17.85;39.09;93587.91;4981060;28;20038;-72
2022/04/26 09:16:25;;;;;;;10.68;2.15;;;;;;;17.26;39.61;93571.72;4989497;28;20498;-70
2022/04/26 09:18:52;;;;;;;5.03;1.60;;;;;;;17.39;39.17;93586.50;4990270;28;20045;-71
2022/04/26 09:21:20;;;;;;;5.38;2.03;;;;;;;17.71;39.49;93582.34;4986326;28;20569;-71
2022/04/26 09:23:47;;;;;;;6.63;1.83;;;;;;;17.55;39.15;93585.19;4999452;28;20225;-72
2022/04/26 09:26:14;;;;;;;6.75;2.47;;;;;;;17.53;38.97;93582.09;4988847;28;20718;-71
2022/04/26 09:28:50;;;;;;;6.95;1.75;;;;;;;18.03;38.65;93572.06;4986870;28;20831;-71
2022/04/26 09:31:22;;;;;;;8.63;2.42;;;;;;;17.69;38.36;93583.88;4988398;28;20057;-71
2022/04/26 09:33:56;;;;;;;5.50;2.17;;;;;;;17.86;37.75;93565.25;4994123;28;20056;-70
2022/04/26 09:36:24;;;;;;;;;;;;;;;18.12;37.36;93579.84;4988419;28;20041;-71
2022/04/26 09:38:57;;;;;;;6.00;1.65;;;;;;;18.13;38.53;93574.13;4990682;28;19916;-71
2022/04/26 09:41:24;;;;;;;8.13;2.25;;;;;;;17.96;39.11;93578.13;4989202;28;20553;-71
2022/04/26 09:44:02;;;;;;;5.10;2.00;;;;;;;18.23;38.66;93570.00;4986528;28;20071;-71
2022/04/26 09:46:43;;;;;;;2.50;1.40;;;;;;;18.49;38.17;93564.50;4990136;28;20124;-73
2022/04/26 09:49:10;;;;;;;3.92;1.55;;;;;;;18.45;37.99;93553.72;4989316;28;20088;-71
2022/04/26 09:51:39;;;;;;;6.78;1.77;;;;;;;18.75;39.39;93561.75;4981790;28;20049;-71
2022/04/26 09:54:05;;;;;;;5.03;1.52;;;;;;;18.67;37.58;93568.19;4988392;28;20046;-70
2022/04/26 09:56:32;;;;;;;3.70;1.67;;;;;;;17.87;38.65;93563.34;4993086;28;20573;-70
2022/04/26 09:58:59;;;;;;;4.22;1.98;;;;;;;18.24;37.89;93556.16;4985809;28;20048;-71
2022/04/26 10:01:31;;;;;;;3.75;1.25;;;;;;;18.34;36.75;93560.09;4983018;28;20065;-72
2022/04/26 10:04:02;;;;;;;8.25;2.00;;;;;;;17.77;37.60;93559.38;4986655;28;20036;-72
2022/04/26 10:06:34;;;;;;;7.28;1.85;;;;;;;18.00;38.21;93545.88;4989361;28;20057;-70
2022/04/26 10:09:00;;;;;;;4.13;2.25;;;;;;;18.50;36.67;93552.59;4982863;28;20394;-72
2022/04/26 11:46:11;;;;;;;3.47;1.40;;;;;;;18.83;34.83;93454.81;5053172;27;20801;-70
2022/04/26 11:48:37;;;;;;;1.70;1.30;;;;;;;18.87;34.94;93480.63;5010642;28;20384;-70
2022/04/26 11:51:04;;;;;;;1.13;0.85;;;;;;;18.95;34.86;93475.31;5011431;28;20111;-71
2022/04/26 11:53:31;;;;;;;2.38;1.20;;;;;;;18.65;34.73;93443.88;5007146;28;20025;-70
2022/04/26 11:56:01;;;;;;;2.38;1.33;;;;;;;18.78;33.63;93449.75;5011556;28;20021;-70
2022/04/26 11:58:26;;;;;;;4.43;1.13;;;;;;;18.74;34.36;93468.59;5010552;28;20069;-71
2022/04/26 12:00:53;;;;;;;3.17;1.50;;;;;;;18.45;35.06;93469.47;5009533;28;20101;-70
2022/04/26 12:03:20;;;;;;;4.07;1.52;;;;;;;17.96;36.04;93456.25;5011653;28;20038;-71
2022/04/26 12:05:57;;;;;;;6.18;1.33;;;;;;;17.87;36.28;93445.00;5007454;28;20021;-71
2022/04/26 12:08:24;;;;;;;3.65;1.10;;;;;;;18.19;36.18;93453.41;5009897;28;20040;-70
2022/04/26 12:10:49;;;;;;;6.20;1.33;;;;;;;18.48;38.65;93460.63;5011149;28;20088;-72
2022/04/26 12:13:28;;;;;;;2.72;1.17;;;;;;;18.68;36.06;93461.97;5011048;28;20029;-71
2022/04/26 12:15:54;;;;;;;4.32;1.10;;;;;;;18.53;34.12;93468.38;5014916;28;20180;-71
2022/04/26 12:18:21;;;;;;;3.45;1.40;;;;;;;18.59;34.06;93456.13;5012382;28;20497;-70
2022/04/26 12:21:02;;;;;;;19.95;13.57;;;;;;;18.56;33.74;93445.31;5011635;28;20036;-71
2022/04/26 12:23:29;;;;;;;5.95;3.38;;;;;;;18.78;33.59;93461.31;5007708;28;20048;-71
2022/04/26 12:25:55;;;;;;;1.15;0.90;;;;;;;18.86;33.29;93459.47;5012668;28;20022;-70
2022/04/26 12:28:21;;;;;;;4.60;1.48;;;;;;;18.92;33.28;93444.47;5009522;28;20028;-71
2022/04/26 12:30:46;;;;;;;4.43;1.10;;;;;;;18.50;33.98;93434.13;5008736;28;20029;-70
2022/04/26 12:33:34;;;;;;;5.35;1.15;;;;;;;18.50;34.38;93454.88;5013112;28;20129;-70
2022/04/26 12:36:05;;;;;;;3.05;1.33;;;;;;;18.31;34.00;93453.16;5009432;28;20029;-70
2022/04/26 12:38:43;;;;;;;2.08;1.27;;;;;;;18.16;34.30;93429.94;5010886;28;20038;-70
2022/04/26 12:41:09;;;;;;;3.05;1.20;;;;;;;18.18;34.14;93433.84;5010771;28;20126;-70
2022/04/26 12:43:35;;;;;;;4.25;1.60;;;;;;;18.29;33.75;93433.91;5013634;28;20080;-71
2022/04/26 12:46:02;;;;;;;4.07;1.42;;;;;;;18.41;34.20;93460.56;5001231;28;20556;-70
2022/04/26 12:51:18;;;;;;;;;;;;;;;18.58;33.76;93454.56;4999032;28;20532;-70
2022/04/26 12:53:45;;;;;;;2.42;0.90;;;;;;;18.48;34.09;93439.09;4999381;28;20400;-71
2022/04/26 12:56:11;;;;;;;2.35;1.45;;;;;;;18.49;34.90;93448.72;4996560;28;20541;-71
2022/04/26 12:58:38;;;;;;;9.30;3.35;;;;;;;18.10;36.52;93416.06;4996212;28;20026;-71
2022/04/26 13:01:05;;;;;;;7.20;1.20;;;;;;;17.90;36.76;93449.63;4987992;28;20041;-68
2022/04/26 13:03:32;;;;;;;6.47;1.40;;;;;;;17.75;37.63;93445.22;4989794;28;20188;-70
2022/04/26 13:06:27;;;;;;;9.93;1.38;;;;;;;17.63;38.26;93446.25;4997022;28;20021;-71
2022/04/26 13:08:53;;;;;;;1.87;1.10;;;;;;;17.60;37.40;93452.34;4995861;28;20065;-70
2022/04/26 13:11:18;;;;;;;1.48;0.82;;;;;;;17.33;38.11;93451.63;4997434;28;20049;-70
2022/04/26 13:13:49;;;;;;;1.52;0.90;;;;;;;17.23;38.11;93471.06;5001373;28;20140;-70
2022/04/26 13:16:15;;;;;;;2.55;1.23;;;;;;;16.92;37.98;93445.25;4994483;28;20431;-70
2022/04/26 13:18:41;;;;;;;5.93;1.42;;;;;;;16.85;38.02;93455.91;4997164;28;20034;-70
2022/04/26 13:21:07;;;;;;;0.70;0.70;;;;;;;16.80;38.45;93432.03;5000218;28;20271;-69
2022/04/26 13:23:34;;;;;;;5.72;1.10;;;;;;;17.14;38.43;93467.88;4992604;28;20033;-70
2022/04/26 13:26:01;;;;;;;2.47;0.90;;;;;;;17.09;38.89;93471.63;4998118;28;20046;-70
2022/04/26 13:28:26;;;;;;;7.53;0.88;;;;;;;16.77;39.37;93464.97;4993525;28;20053;-69
2022/04/26 13:30:52;;;;;;;5.93;1.55;;;;;;;16.46;40.58;93471.38;4996081;28;20461;-70
2022/04/26 13:33:17;;;;;;;5.95;1.10;;;;;;;16.74;40.65;93471.06;4997096;28;20037;-71
2022/04/26 13:35:43;;;;;;;1.63;1.00;;;;;;;16.46;40.31;93475.97;4994980;28;20134;-71
2022/04/26 13:38:10;;;;;;;4.07;1.27;;;;;;;16.25;40.84;93426.13;4996423;28;20549;-70
2022/04/26 13:40:37;;;;;;;0.82;0.82;;;;;;;16.25;40.41;93469.06;4987684;28;20067;-70
2022/04/26 13:43:03;;;;;;;4.40;0.93;;;;;;;16.44;40.80;93475.53;4997587;28;20038;-70
2022/04/26 13:45:29;;;;;;;1.10;0.80;;;;;;;16.62;40.16;93469.34;4990918;28;20498;-70
2022/04/26 13:47:54;;;;;;;1.38;0.88;;;;;;;16.26;41.25;93477.91;4998284;28;20025;-71
2022/04/26 13:50:20;;;;;;;2.28;0.90;;;;;;;16.06;42.50;93458.38;4995974;28;20042;-70
2022/04/26 13:52:45;;;;;;;3.30;1.42;;;;;;;16.13;42.84;93469.25;4995118;28;20026;-70
2022/04/26 13:55:15;;;;;;;4.60;1.10;;;;;;;16.10;43.63;93464.56;4997837;28;20026;-70
2022/04/26 13:57:41;;;;;;;2.88;0.98;;;;;;;15.74;44.66;93430.19;4988468;28;20038;-69
2022/04/26 14:00:07;;;;;;;1.48;1.15;;;;;;;15.95;45.25;93452.03;4997299;28;20041;-70
2022/04/26 14:02:35;;;;;;;6.80;1.30;;;;;;;15.80;45.74;93471.66;4994796;28;20116;-71
2022/04/26 14:05:00;;;;;;;5.80;1.23;;;;;;;16.18;45.06;93468.94;4994838;28;20495;-70
2022/04/26 14:07:26;;;;;;;1.95;0.88;;;;;;;16.22;45.09;93483.19;4994007;28;20036;-70
2022/04/26 14:09:51;;;;;;;1.02;0.93;;;;;;;16.26;44.67;93486.72;4988968;28;20032;-70
2022/04/26 14:12:18;;;;;;;2.30;1.20;;;;;;;15.79;46.33;93483.53;4992752;28;20034;-70
2022/04/26 14:22:56;;;;;;;1.42;1.13;;;;;;;16.35;43.69;93526.00;4987984;28;20057;-70
2022/04/26 14:25:21;;;;;;;2.50;1.30;;;;;;;16.03;43.88;93539.56;4992697;28;20030;-70
2022/04/26 14:27:49;;;;;;;1.25;1.10;;;;;;;16.18;44.20;93535.25;4993363;28;20029;-70
2022/04/26 14:30:16;;;;;;;3.78;2.13;;;;;;;16.08;44.82;93555.38;4987223;28;20405;-70
2022/04/26 14:32:43;;;;;;;4.22;1.35;;;;;;;16.59;44.52;93557.88;4992711;28;20039;-70
2022/04/26 14:35:10;;;;;;;3.22;1.00;;;;;;;16.31;44.29;93572.34;4991709;28;20022;-70
2022/04/26 14:37:35;;;;;;;4.80;1.30;;;;;;;16.36;43.65;93535.59;4992869;28;20033;-69
2022/04/26 14:40:03;;;;;;;5.80;1.17;;;;;;;16.35;44.10;93588.50;4994710;28;20532;-70
2022/04/26 14:42:29;;;;;;;4.35;1.13;;;;;;;16.35;43.87;93577.75;4987975;28;20062;-71
2022/04/26 14:44:55;;;;;;;1.67;1.00;;;;;;;16.30;43.76;93591.44;4994505;28;20049;-70
2022/04/26 14:47:20;;;;;;;3.35;1.85;;;;;;;16.54;43.58;93585.00;4995052;28;20096;-70
2022/04/26 14:49:47;;;;;;;7.57;1.52;;;;;;;16.05;44.02;93580.19;4985882;28;20477;-70
2022/04/26 14:52:21;;;;;;;5.47;0.93;;;;;;;16.79;42.72;93601.56;4992124;28;20037;-71
2022/04/26 14:54:50;;;;;;;1.02;0.70;;;;;;;16.87;41.65;93614.75;4986080;28;20026;-70
2022/04/26 14:57:18;;;;;;;2.25;0.70;;;;;;;16.23;42.32;93585.94;4987768;28;20517;-71
2022/04/26 14:59:47;;;;;;;2.33;0.90;;;;;;;16.03;42.20;93622.72;4997208;28;20037;-70
2022/04/26 15:02:17;;;;;;;1.17;0.73;;;;;;;16.00;42.15;93641.38;4995867;28;20021;-71
2022/04/26 15:04:47;;;;;;;1.20;0.80;;;;;;;15.52;42.08;93645.31;4998471;28;20076;-70
2022/04/26 15:07:13;;;;;;;2.72;0.70;;;;;;;15.48;42.21;93625.69;4994742;28;20380;-70
2022/04/26 15:09:51;;;;;;;2.35;1.10;;;;;;;16.02;41.97;93639.94;4993754;28;20034;-70
2022/04/26 15:17:50;;;;;;;1.42;0.95;;;;;;;16.33;41.67;93614.16;4997622;28;20060;-70
2022/04/26 15:20:21;;;;;;;2.78;0.70;;;;;;;16.59;41.29;93636.50;4995966;28;20087;-71
2022/04/26 15:22:47;;;;;;;0.82;0.82;;;;;;;16.62;41.40;93640.41;4995328;28;20370;-71
2022/04/26 15:25:13;;;;;;;0.77;0.77;;;;;;;16.09;42.38;93645.44;4993318;28;20040;-71
2022/04/26 15:27:39;;;;;;;1.80;0.70;;;;;;;16.36;41.80;93624.16;4993604;28;20108;-70
2022/04/26 15:30:07;;;;;;;3.17;1.00;;;;;;;16.20;42.10;93657.16;4995480;28;20108;-70
2022/04/26 15:32:33;;;;;;;0.98;0.70;;;;;;;16.51;41.98;93624.09;4991014;28;20382;-71
2022/04/26 15:34:58;;;;;;;1.42;0.73;;;;;;;17.02;41.23;93648.03;4995928;28;20025;-70
2022/04/26 15:37:28;;;;;;;1.58;0.95;;;;;;;17.31;41.85;93646.63;4993805;28;20018;-70
2022/04/26 15:39:54;;;;;;;0.73;0.60;;;;;;;17.56;41.25;93655.88;4996051;28;20415;-71
2022/04/26 15:42:20;;;;;;;0.70;0.57;;;;;;;17.55;40.27;93628.22;4992847;28;20025;-71
2022/04/26 15:44:46;;;;;;;3.13;1.02;;;;;;;17.83;40.14;93643.25;4992534;28;20034;-70
2022/04/26 15:47:11;;;;;;;0.98;0.77;;;;;;;17.89;39.90;93637.16;5010805;28;20107;-71
2022/04/26 15:49:37;;;;;;;1.20;0.80;;;;;;;17.98;39.55;93636.94;4993929;28;20047;-70
2022/04/26 15:52:03;;;;;;;0.60;0.60;;;;;;;17.85;39.28;93630.97;4992494;28;20125;-70
2022/04/26 15:54:29;;;;;;;0.80;0.50;;;;;;;17.97;39.59;93622.72;4988641;28;20083;-72
2022/04/26 15:56:54;;;;;;;0.70;0.65;;;;;;;18.10;39.64;93625.19;4994389;28;20440;-70
2022/04/26 15:59:20;;;;;;;0.98;0.88;;;;;;;18.27;39.70;93622.72;4993504;28;20036;-70
2022/04/26 16:01:46;;;;;;;1.80;1.00;;;;;;;18.27;39.30;93621.94;4995177;28;20510;-70
2022/04/26 16:04:11;;;;;;;0.88;0.70;;;;;;;18.13;38.35;93605.63;4997238;28;20172;-71
2022/04/26 16:06:38;;;;;;;0.85;0.68;;;;;;;17.16;39.90;93627.59;4992243;28;20529;-71
2022/04/26 16:22:50;;;;;;;2.30;0.80;;;;;;;14.97;45.43;93639.75;4999648;28;20037;-70
2022/04/26 16:25:15;;;;;;;2.58;0.90;;;;;;;14.89;46.22;93632.66;5000918;28;20454;-71
2022/04/26 16:27:42;;;;;;;2.03;1.08;;;;;;;14.87;46.59;93615.38;4998807;28;20030;-68
2022/04/26 16:30:08;;;;;;;5.03;1.50;;;;;;;15.38;45.98;93611.66;4998211;28;20543;-70
2022/04/26 16:32:34;;;;;;;4.40;2.83;;;;;;;15.37;45.98;93628.06;4999235;28;20025;-70
2022/04/26 16:35:00;;;;;;;2.58;1.67;;;;;;;15.35;45.55;93585.53;5000969;28;20025;-70
2022/04/26 16:37:25;;;;;;;2.70;0.70;;;;;;;16.20;44.61;93633.03;4996378;28;20030;-71
2022/04/26 16:39:50;;;;;;;2.22;1.70;;;;;;;16.22;43.33;93636.16;5001705;28;20037;-70
2022/04/26 16:42:16;;;;;;;7.85;2.50;;;;;;;16.11;43.73;93637.81;4954711;28;20061;-71
2022/04/26 16:44:42;;;;;;;3.97;1.45;;;;;;;16.59;43.69;93633.03;4989195;28;20050;-69
2022/04/26 16:47:08;;;;;;;1.42;0.90;;;;;;;16.89;43.81;93634.00;4987844;28;20030;-70
2022/04/26 16:49:33;;;;;;;1.55;0.93;;;;;;;17.07;43.47;93628.94;4984654;28;20032;-71
2022/04/26 16:51:59;;;;;;;6.07;1.52;;;;;;;17.16;43.34;93622.22;4982952;28;20084;-71
2022/04/26 16:54:24;;;;;;;3.70;1.83;;;;;;;17.09;42.28;93602.50;4990531;28;20033;-71
2022/04/26 16:56:50;;;;;;;1.70;1.30;;;;;;;17.34;42.62;93614.47;4990459;28;20663;-71
2022/04/26 16:59:17;;;;;;;1.50;0.77;;;;;;;17.57;42.80;93630.53;4989664;28;20029;-71
2022/04/26 17:01:44;;;;;;;2.47;0.88;;;;;;;17.56;42.49;93624.38;4990052;28;20030;-70
2022/04/26 17:04:12;;;;;;;3.72;1.35;;;;;;;17.72;42.65;93636.91;4988923;28;20025;-69
2022/04/26 17:06:38;;;;;;;2.40;1.45;;;;;;;17.81;42.32;93645.50;4990969;28;20087;-70
2022/04/26 17:09:04;;;;;;;3.38;1.27;;;;;;;17.86;42.35;93654.03;4988201;28;20537;-71
2022/04/26 17:11:42;;;;;;;3.75;1.67;;;;;;;17.73;42.03;93655.38;4987407;28;20053;-71
2022/04/26 17:14:08;;;;;;;2.72;1.42;;;;;;;17.73;42.13;93635.78;4989032;28;20049;-70
2022/04/26 17:16:34;;;;;;;7.85;3.03;;;;;;;16.58;43.53;93650.28;4987173;28;20029;-71
2022/04/26 17:18:59;;;;;;;25.73;11.38;;;;;;;16.16;45.03;93675.09;4990824;28;20048;-70
2022/04/26 17:21:25;;;;;;;19.13;7.90;;;;;;;16.05;45.57;93665.25;4989160;28;20096;-70
2022/04/26 17:23:50;;;;;;;5.10;2.88;;;;;;;16.16;46.00;93672.41;4991218;28;20026;-69